Search for airport 
image banner adimage banner adimage banner ad
image banner ad

DAUH - Hassi Messaoud/Oued Irara-Krim Belkacem

Located in Hassi Messaoud, Algeria

ICAO - DAUH, IATA - HME

Data provided by Airmate  

General information

Coordinates: N31°40'26" E6°8'26"
Elevation is 459 feet MSL.
 
View others Airports in Ouargla Province

Operational data

Special qualification required
Current time UTC:
Current local time:
Weather
METAR: DAUH 291530Z 05005KT CAVOK 42/// Q1012
TAF: TAF DAUH 291100Z 2912/3012 08008KT CAVOK
View NOTAMs / SUP AIP / TFR affecting this airport [VIEW]
Communications frequencies: [VIEW]

Runways:

RWY identifierQFULength (ft)Width (ft)SurfaceLDA (ft)
18184°9843148ASP
369843148

Airport contact information

Address: Hassi Messaoud Algeria

Other aviation service providers

Aerial work

Tassili travail aérien

Tassili travail aérien
Rated:
View ratings:
[VIEW]

Satellite view of DAUH